sensor_id;sensor_type;location;lat;lon;timestamp;P1;durP1;ratioP1;P2;durP2;ratioP2
16270;SDS011;8243;49.048;8.396;2023-09-19T00:02:16;4.17;;;1.70;;
16270;SDS011;8243;49.048;8.396;2023-09-19T00:04:42;4.27;;;1.80;;
16270;SDS011;8243;49.048;8.396;2023-09-19T00:07:08;1.93;;;1.60;;
16270;SDS011;8243;49.048;8.396;2023-09-19T00:09:34;3.03;;;1.90;;
16270;SDS011;8243;49.048;8.396;2023-09-19T00:12:05;2.37;;;1.63;;
16270;SDS011;8243;49.048;8.396;2023-09-19T00:14:32;2.03;;;1.43;;
16270;SDS011;8243;49.048;8.396;2023-09-19T00:17:02;1.80;;;1.70;;
16270;SDS011;8243;49.048;8.396;2023-09-19T00:19:33;1.43;;;1.33;;
16270;SDS011;8243;49.048;8.396;2023-09-19T00:22:00;2.00;;;1.60;;
16270;SDS011;8243;49.048;8.396;2023-09-19T00:24:27;2.73;;;1.80;;
16270;SDS011;8243;49.048;8.396;2023-09-19T00:26:53;1.90;;;1.60;;
16270;SDS011;8243;49.048;8.396;2023-09-19T00:29:20;2.63;;;1.60;;
16270;SDS011;8243;49.048;8.396;2023-09-19T00:31:46;2.43;;;1.60;;
16270;SDS011;8243;49.048;8.396;2023-09-19T00:34:12;4.03;;;1.60;;
16270;SDS011;8243;49.048;8.396;2023-09-19T00:36:37;2.43;;;1.70;;
16270;SDS011;8243;49.048;8.396;2023-09-19T00:39:08;1.90;;;1.60;;
16270;SDS011;8243;49.048;8.396;2023-09-19T00:41:33;2.00;;;1.70;;
16270;SDS011;8243;49.048;8.396;2023-09-19T00:44:01;1.60;;;1.50;;
16270;SDS011;8243;49.048;8.396;2023-09-19T00:46:28;3.00;;;1.43;;
16270;SDS011;8243;49.048;8.396;2023-09-19T00:48:55;1.87;;;1.40;;
16270;SDS011;8243;49.048;8.396;2023-09-19T00:51:22;3.77;;;1.60;;
16270;SDS011;8243;49.048;8.396;2023-09-19T00:53:50;5.17;;;1.70;;
16270;SDS011;8243;49.048;8.396;2023-09-19T00:56:18;2.53;;;1.30;;
16270;SDS011;8243;49.048;8.396;2023-09-19T00:58:44;3.63;;;1.60;;
16270;SDS011;8243;49.048;8.396;2023-09-19T01:01:11;1.93;;;1.43;;
16270;SDS011;8243;49.048;8.396;2023-09-19T01:03:41;1.70;;;1.30;;
16270;SDS011;8243;49.048;8.396;2023-09-19T01:06:07;2.03;;;1.70;;
16270;SDS011;8243;49.048;8.396;2023-09-19T01:08:37;2.90;;;1.40;;
16270;SDS011;8243;49.048;8.396;2023-09-19T01:11:06;2.13;;;1.40;;
16270;SDS011;8243;49.048;8.396;2023-09-19T01:14:02;1.53;;;1.43;;
16270;SDS011;8243;49.048;8.396;2023-09-19T01:25:31;1.60;;;1.20;;
16270;SDS011;8243;49.048;8.396;2023-09-19T01:30:58;1.70;;;1.30;;
16270;SDS011;8243;49.048;8.396;2023-09-19T01:33:26;1.40;;;1.30;;
16270;SDS011;8243;49.048;8.396;2023-09-19T01:35:52;1.57;;;1.20;;
16270;SDS011;8243;49.048;8.396;2023-09-19T01:38:22;2.20;;;1.40;;
16270;SDS011;8243;49.048;8.396;2023-09-19T01:40:57;1.87;;;1.20;;
16270;SDS011;8243;49.048;8.396;2023-09-19T01:43:33;2.93;;;1.20;;
16270;SDS011;8243;49.048;8.396;2023-09-19T01:51:32;1.73;;;1.23;;
16270;SDS011;8243;49.048;8.396;2023-09-19T01:54:26;2.03;;;1.40;;
16270;SDS011;8243;49.048;8.396;2023-09-19T01:57:00;2.50;;;1.50;;
16270;SDS011;8243;49.048;8.396;2023-09-19T01:59:45;2.13;;;1.40;;
16270;SDS011;8243;49.048;8.396;2023-09-19T02:02:17;2.33;;;1.30;;
16270;SDS011;8243;49.048;8.396;2023-09-19T02:04:47;1.30;;;1.20;;
16270;SDS011;8243;49.048;8.396;2023-09-19T02:07:13;2.33;;;1.20;;
16270;SDS011;8243;49.048;8.396;2023-09-19T02:09:40;2.17;;;1.33;;
16270;SDS011;8243;49.048;8.396;2023-09-19T02:12:08;2.80;;;1.40;;
16270;SDS011;8243;49.048;8.396;2023-09-19T02:14:34;2.07;;;1.67;;
16270;SDS011;8243;49.048;8.396;2023-09-19T02:17:01;2.23;;;1.40;;
16270;SDS011;8243;49.048;8.396;2023-09-19T02:19:34;2.10;;;1.63;;
16270;SDS011;8243;49.048;8.396;2023-09-19T02:22:01;2.37;;;1.70;;
16270;SDS011;8243;49.048;8.396;2023-09-19T02:24:32;3.23;;;1.53;;
16270;SDS011;8243;49.048;8.396;2023-09-19T02:26:58;3.17;;;1.90;;
16270;SDS011;8243;49.048;8.396;2023-09-19T02:29:28;1.30;;;1.20;;
16270;SDS011;8243;49.048;8.396;2023-09-19T02:31:54;2.97;;;1.60;;
16270;SDS011;8243;49.048;8.396;2023-09-19T02:34:22;1.83;;;1.40;;
16270;SDS011;8243;49.048;8.396;2023-09-19T02:36:47;2.07;;;1.50;;
16270;SDS011;8243;49.048;8.396;2023-09-19T02:39:13;1.93;;;1.70;;
16270;SDS011;8243;49.048;8.396;2023-09-19T02:41:39;2.90;;;1.50;;
16270;SDS011;8243;49.048;8.396;2023-09-19T02:44:06;1.97;;;1.40;;
16270;SDS011;8243;49.048;8.396;2023-09-19T02:46:33;2.37;;;1.70;;
16270;SDS011;8243;49.048;8.396;2023-09-19T02:49:01;1.87;;;1.57;;
16270;SDS011;8243;49.048;8.396;2023-09-19T02:51:28;2.23;;;1.77;;
16270;SDS011;8243;49.048;8.396;2023-09-19T02:53:54;2.43;;;1.53;;
16270;SDS011;8243;49.048;8.396;2023-09-19T02:56:20;3.27;;;1.77;;
16270;SDS011;8243;49.048;8.396;2023-09-19T02:58:45;1.93;;;1.77;;
16270;SDS011;8243;49.048;8.396;2023-09-19T03:01:13;3.87;;;2.10;;
16270;SDS011;8243;49.048;8.396;2023-09-19T03:03:39;2.77;;;1.93;;
16270;SDS011;8243;49.048;8.396;2023-09-19T03:06:05;3.83;;;1.90;;
16270;SDS011;8243;49.048;8.396;2023-09-19T03:08:34;3.00;;;1.70;;
16270;SDS011;8243;49.048;8.396;2023-09-19T03:11:03;2.00;;;1.80;;
16270;SDS011;8243;49.048;8.396;2023-09-19T03:13:30;1.97;;;1.87;;
16270;SDS011;8243;49.048;8.396;2023-09-19T03:15:56;3.40;;;1.90;;
16270;SDS011;8243;49.048;8.396;2023-09-19T03:18:23;3.23;;;2.10;;
16270;SDS011;8243;49.048;8.396;2023-09-19T03:20:54;3.80;;;2.00;;
16270;SDS011;8243;49.048;8.396;2023-09-19T03:23:21;3.23;;;2.10;;
16270;SDS011;8243;49.048;8.396;2023-09-19T03:25:47;2.50;;;2.30;;
16270;SDS011;8243;49.048;8.396;2023-09-19T03:28:13;2.90;;;2.20;;
16270;SDS011;8243;49.048;8.396;2023-09-19T03:30:40;5.07;;;2.30;;
16270;SDS011;8243;49.048;8.396;2023-09-19T03:33:07;3.03;;;2.20;;
16270;SDS011;8243;49.048;8.396;2023-09-19T03:35:35;4.47;;;2.20;;
16270;SDS011;8243;49.048;8.396;2023-09-19T03:38:02;3.57;;;2.20;;
16270;SDS011;8243;49.048;8.396;2023-09-19T03:40:28;2.63;;;2.07;;
16270;SDS011;8243;49.048;8.396;2023-09-19T03:42:53;3.73;;;2.10;;
16270;SDS011;8243;49.048;8.396;2023-09-19T03:45:19;4.40;;;2.37;;
16270;SDS011;8243;49.048;8.396;2023-09-19T03:47:45;2.40;;;2.20;;
16270;SDS011;8243;49.048;8.396;2023-09-19T03:50:14;2.73;;;2.13;;
16270;SDS011;8243;49.048;8.396;2023-09-19T03:52:42;4.60;;;2.20;;
16270;SDS011;8243;49.048;8.396;2023-09-19T03:55:11;3.33;;;2.07;;
16270;SDS011;8243;49.048;8.396;2023-09-19T03:57:37;2.40;;;2.20;;
16270;SDS011;8243;49.048;8.396;2023-09-19T04:00:03;2.20;;;1.77;;
16270;SDS011;8243;49.048;8.396;2023-09-19T04:02:37;3.07;;;2.10;;
16270;SDS011;8243;49.048;8.396;2023-09-19T04:05:04;2.10;;;1.90;;
16270;SDS011;8243;49.048;8.396;2023-09-19T04:07:30;3.20;;;2.10;;
16270;SDS011;8243;49.048;8.396;2023-09-19T04:09:59;3.57;;;2.27;;
16270;SDS011;8243;49.048;8.396;2023-09-19T04:12:24;2.60;;;1.97;;
16270;SDS011;8243;49.048;8.396;2023-09-19T04:14:50;2.73;;;2.10;;
16270;SDS011;8243;49.048;8.396;2023-09-19T04:17:16;3.93;;;2.33;;
16270;SDS011;8243;49.048;8.396;2023-09-19T04:19:43;8.73;;;2.47;;
16270;SDS011;8243;49.048;8.396;2023-09-19T04:22:10;6.40;;;2.03;;
16270;SDS011;8243;49.048;8.396;2023-09-19T04:24:37;5.73;;;2.17;;
16270;SDS011;8243;49.048;8.396;2023-09-19T04:27:03;2.27;;;1.80;;
16270;SDS011;8243;49.048;8.396;2023-09-19T04:29:29;5.83;;;2.20;;
16270;SDS011;8243;49.048;8.396;2023-09-19T04:31:56;3.27;;;2.40;;
16270;SDS011;8243;49.048;8.396;2023-09-19T04:34:24;4.47;;;2.40;;
16270;SDS011;8243;49.048;8.396;2023-09-19T04:36:50;5.77;;;2.50;;
16270;SDS011;8243;49.048;8.396;2023-09-19T04:39:15;4.47;;;2.57;;
16270;SDS011;8243;49.048;8.396;2023-09-19T04:41:42;2.27;;;2.07;;
16270;SDS011;8243;49.048;8.396;2023-09-19T04:44:11;3.37;;;2.37;;
16270;SDS011;8243;49.048;8.396;2023-09-19T04:46:37;4.33;;;2.20;;
16270;SDS011;8243;49.048;8.396;2023-09-19T04:49:03;3.10;;;2.30;;
16270;SDS011;8243;49.048;8.396;2023-09-19T04:51:28;2.97;;;2.10;;
16270;SDS011;8243;49.048;8.396;2023-09-19T04:53:59;2.53;;;2.20;;
16270;SDS011;8243;49.048;8.396;2023-09-19T04:56:25;4.33;;;2.67;;
16270;SDS011;8243;49.048;8.396;2023-09-19T04:58:51;3.37;;;2.13;;
16270;SDS011;8243;49.048;8.396;2023-09-19T05:01:16;8.30;;;2.60;;
16270;SDS011;8243;49.048;8.396;2023-09-19T05:03:42;3.87;;;2.07;;
16270;SDS011;8243;49.048;8.396;2023-09-19T05:06:09;4.13;;;2.10;;
16270;SDS011;8243;49.048;8.396;2023-09-19T05:08:38;4.70;;;2.80;;
16270;SDS011;8243;49.048;8.396;2023-09-19T05:11:05;3.37;;;2.20;;
16270;SDS011;8243;49.048;8.396;2023-09-19T05:13:30;2.93;;;2.43;;
16270;SDS011;8243;49.048;8.396;2023-09-19T05:15:59;7.00;;;2.10;;
16270;SDS011;8243;49.048;8.396;2023-09-19T05:18:27;4.93;;;2.37;;
16270;SDS011;8243;49.048;8.396;2023-09-19T05:20:53;3.27;;;2.33;;
16270;SDS011;8243;49.048;8.396;2023-09-19T05:23:19;3.50;;;2.37;;
16270;SDS011;8243;49.048;8.396;2023-09-19T05:25:46;5.80;;;2.30;;
16270;SDS011;8243;49.048;8.396;2023-09-19T05:28:11;3.50;;;2.17;;
16270;SDS011;8243;49.048;8.396;2023-09-19T05:30:40;4.20;;;2.30;;
16270;SDS011;8243;49.048;8.396;2023-09-19T05:33:08;3.80;;;2.53;;
16270;SDS011;8243;49.048;8.396;2023-09-19T05:35:34;4.33;;;2.60;;
16270;SDS011;8243;49.048;8.396;2023-09-19T05:38:02;4.20;;;2.47;;
16270;SDS011;8243;49.048;8.396;2023-09-19T05:40:27;5.50;;;3.10;;
16270;SDS011;8243;49.048;8.396;2023-09-19T05:42:53;4.83;;;2.70;;
16270;SDS011;8243;49.048;8.396;2023-09-19T05:45:19;3.90;;;2.20;;
16270;SDS011;8243;49.048;8.396;2023-09-19T05:47:48;3.80;;;2.10;;
16270;SDS011;8243;49.048;8.396;2023-09-19T05:50:16;5.70;;;2.53;;
16270;SDS011;8243;49.048;8.396;2023-09-19T05:52:43;10.23;;;2.50;;
16270;SDS011;8243;49.048;8.396;2023-09-19T05:55:17;3.17;;;2.40;;
16270;SDS011;8243;49.048;8.396;2023-09-19T05:57:42;3.53;;;2.47;;
16270;SDS011;8243;49.048;8.396;2023-09-19T06:00:08;3.23;;;2.53;;
16270;SDS011;8243;49.048;8.396;2023-09-19T06:02:40;5.97;;;2.67;;
16270;SDS011;8243;49.048;8.396;2023-09-19T06:05:06;4.47;;;2.13;;
16270;SDS011;8243;49.048;8.396;2023-09-19T06:07:35;4.40;;;2.30;;
16270;SDS011;8243;49.048;8.396;2023-09-19T06:10:05;6.17;;;2.67;;
16270;SDS011;8243;49.048;8.396;2023-09-19T06:12:38;5.83;;;2.47;;
16270;SDS011;8243;49.048;8.396;2023-09-19T06:15:05;4.17;;;2.80;;
16270;SDS011;8243;49.048;8.396;2023-09-19T06:17:33;3.80;;;2.67;;
16270;SDS011;8243;49.048;8.396;2023-09-19T06:20:03;3.93;;;2.13;;
16270;SDS011;8243;49.048;8.396;2023-09-19T06:22:30;3.57;;;2.10;;
16270;SDS011;8243;49.048;8.396;2023-09-19T06:25:00;5.03;;;2.07;;
16270;SDS011;8243;49.048;8.396;2023-09-19T06:27:27;3.93;;;2.20;;
16270;SDS011;8243;49.048;8.396;2023-09-19T06:29:54;5.33;;;3.10;;
16270;SDS011;8243;49.048;8.396;2023-09-19T06:32:26;8.67;;;2.63;;
16270;SDS011;8243;49.048;8.396;2023-09-19T06:34:52;3.63;;;2.00;;
16270;SDS011;8243;49.048;8.396;2023-09-19T06:37:20;3.67;;;2.00;;
16270;SDS011;8243;49.048;8.396;2023-09-19T06:39:47;4.47;;;1.90;;
16270;SDS011;8243;49.048;8.396;2023-09-19T06:42:15;3.47;;;1.73;;
16270;SDS011;8243;49.048;8.396;2023-09-19T06:44:42;4.77;;;1.93;;
16270;SDS011;8243;49.048;8.396;2023-09-19T06:47:08;4.33;;;1.80;;
16270;SDS011;8243;49.048;8.396;2023-09-19T06:49:35;4.40;;;2.10;;
16270;SDS011;8243;49.048;8.396;2023-09-19T06:52:00;3.63;;;1.60;;
16270;SDS011;8243;49.048;8.396;2023-09-19T06:54:27;5.20;;;2.10;;
16270;SDS011;8243;49.048;8.396;2023-09-19T06:56:56;2.23;;;2.00;;
16270;SDS011;8243;49.048;8.396;2023-09-19T06:59:25;3.97;;;1.80;;
16270;SDS011;8243;49.048;8.396;2023-09-19T07:01:52;4.37;;;2.13;;
16270;SDS011;8243;49.048;8.396;2023-09-19T07:04:18;5.70;;;2.20;;
16270;SDS011;8243;49.048;8.396;2023-09-19T07:06:50;3.43;;;1.93;;
16270;SDS011;8243;49.048;8.396;2023-09-19T07:09:17;2.23;;;1.53;;
16270;SDS011;8243;49.048;8.396;2023-09-19T07:11:45;5.53;;;1.90;;
16270;SDS011;8243;49.048;8.396;2023-09-19T07:14:12;3.67;;;1.60;;
16270;SDS011;8243;49.048;8.396;2023-09-19T07:16:38;3.07;;;1.67;;
16270;SDS011;8243;49.048;8.396;2023-09-19T07:19:05;2.80;;;2.00;;
16270;SDS011;8243;49.048;8.396;2023-09-19T07:21:31;4.67;;;1.70;;
16270;SDS011;8243;49.048;8.396;2023-09-19T07:23:59;2.67;;;1.50;;
16270;SDS011;8243;49.048;8.396;2023-09-19T07:26:25;6.53;;;1.97;;
16270;SDS011;8243;49.048;8.396;2023-09-19T07:28:53;1.90;;;1.60;;
16270;SDS011;8243;49.048;8.396;2023-09-19T07:31:20;3.77;;;1.80;;
16270;SDS011;8243;49.048;8.396;2023-09-19T07:33:47;5.33;;;1.70;;
16270;SDS011;8243;49.048;8.396;2023-09-19T07:36:14;4.50;;;1.70;;
16270;SDS011;8243;49.048;8.396;2023-09-19T07:38:40;6.17;;;1.80;;
16270;SDS011;8243;49.048;8.396;2023-09-19T07:41:06;3.70;;;1.67;;
16270;SDS011;8243;49.048;8.396;2023-09-19T07:43:34;3.50;;;1.90;;
16270;SDS011;8243;49.048;8.396;2023-09-19T07:46:05;3.47;;;1.83;;
16270;SDS011;8243;49.048;8.396;2023-09-19T07:48:32;2.40;;;1.60;;
16270;SDS011;8243;49.048;8.396;2023-09-19T07:51:08;2.93;;;1.50;;
16270;SDS011;8243;49.048;8.396;2023-09-19T07:53:35;4.03;;;1.90;;
16270;SDS011;8243;49.048;8.396;2023-09-19T07:56:04;3.30;;;1.93;;
16270;SDS011;8243;49.048;8.396;2023-09-19T07:58:31;2.70;;;1.67;;
16270;SDS011;8243;49.048;8.396;2023-09-19T08:01:08;2.77;;;1.50;;
16270;SDS011;8243;49.048;8.396;2023-09-19T08:03:34;2.80;;;1.43;;
16270;SDS011;8243;49.048;8.396;2023-09-19T08:06:05;2.13;;;1.40;;
16270;SDS011;8243;49.048;8.396;2023-09-19T08:08:31;3.40;;;1.50;;
16270;SDS011;8243;49.048;8.396;2023-09-19T08:10:59;4.03;;;1.43;;
16270;SDS011;8243;49.048;8.396;2023-09-19T08:13:26;2.83;;;1.50;;
16270;SDS011;8243;49.048;8.396;2023-09-19T08:15:52;3.93;;;1.43;;
16270;SDS011;8243;49.048;8.396;2023-09-19T08:18:18;3.50;;;1.50;;
16270;SDS011;8243;49.048;8.396;2023-09-19T08:20:49;2.20;;;1.33;;
16270;SDS011;8243;49.048;8.396;2023-09-19T08:23:16;2.37;;;1.53;;
16270;SDS011;8243;49.048;8.396;2023-09-19T08:25:44;4.27;;;1.57;;
16270;SDS011;8243;49.048;8.396;2023-09-19T08:28:13;3.73;;;1.67;;
16270;SDS011;8243;49.048;8.396;2023-09-19T08:30:47;2.80;;;1.67;;
16270;SDS011;8243;49.048;8.396;2023-09-19T08:33:12;3.57;;;1.57;;
16270;SDS011;8243;49.048;8.396;2023-09-19T08:35:40;1.53;;;1.23;;
16270;SDS011;8243;49.048;8.396;2023-09-19T08:38:08;3.97;;;1.43;;
16270;SDS011;8243;49.048;8.396;2023-09-19T08:40:39;4.53;;;1.50;;
16270;SDS011;8243;49.048;8.396;2023-09-19T08:43:06;4.47;;;1.70;;
16270;SDS011;8243;49.048;8.396;2023-09-19T08:45:32;3.73;;;1.80;;
16270;SDS011;8243;49.048;8.396;2023-09-19T08:51:06;3.50;;;1.40;;
16270;SDS011;8243;49.048;8.396;2023-09-19T08:53:47;1.87;;;1.40;;
16270;SDS011;8243;49.048;8.396;2023-09-19T08:56:32;2.13;;;1.30;;
16270;SDS011;8243;49.048;8.396;2023-09-19T08:59:04;3.40;;;1.80;;
16270;SDS011;8243;49.048;8.396;2023-09-19T09:01:35;2.40;;;1.30;;
16270;SDS011;8243;49.048;8.396;2023-09-19T09:04:01;3.00;;;1.40;;
16270;SDS011;8243;49.048;8.396;2023-09-19T09:06:27;2.53;;;1.40;;
16270;SDS011;8243;49.048;8.396;2023-09-19T09:08:54;4.03;;;1.63;;
16270;SDS011;8243;49.048;8.396;2023-09-19T09:11:21;6.27;;;1.50;;
16270;SDS011;8243;49.048;8.396;2023-09-19T09:13:48;3.53;;;1.30;;
16270;SDS011;8243;49.048;8.396;2023-09-19T09:16:14;2.27;;;1.60;;
16270;SDS011;8243;49.048;8.396;2023-09-19T09:18:44;3.10;;;1.70;;
16270;SDS011;8243;49.048;8.396;2023-09-19T09:21:17;3.70;;;1.47;;
16270;SDS011;8243;49.048;8.396;2023-09-19T09:23:43;2.27;;;1.53;;
16270;SDS011;8243;49.048;8.396;2023-09-19T09:26:09;3.70;;;1.70;;
16270;SDS011;8243;49.048;8.396;2023-09-19T09:28:35;3.93;;;1.80;;
16270;SDS011;8243;49.048;8.396;2023-09-19T09:31:04;3.17;;;1.37;;
16270;SDS011;8243;49.048;8.396;2023-09-19T09:33:34;5.07;;;1.60;;
16270;SDS011;8243;49.048;8.396;2023-09-19T09:36:01;2.53;;;1.30;;
16270;SDS011;8243;49.048;8.396;2023-09-19T09:38:46;2.60;;;1.50;;
16270;SDS011;8243;49.048;8.396;2023-09-19T09:41:13;2.50;;;1.30;;
16270;SDS011;8243;49.048;8.396;2023-09-19T09:43:52;2.20;;;1.40;;
16270;SDS011;8243;49.048;8.396;2023-09-19T09:46:18;2.20;;;1.30;;
16270;SDS011;8243;49.048;8.396;2023-09-19T09:51:38;2.23;;;1.37;;
16270;SDS011;8243;49.048;8.396;2023-09-19T09:54:09;1.90;;;1.33;;
16270;SDS011;8243;49.048;8.396;2023-09-19T09:56:52;2.90;;;1.37;;
16270;SDS011;8243;49.048;8.396;2023-09-19T09:59:18;3.40;;;1.30;;
16270;SDS011;8243;49.048;8.396;2023-09-19T10:01:48;2.80;;;1.40;;
16270;SDS011;8243;49.048;8.396;2023-09-19T10:04:28;5.53;;;1.93;;
16270;SDS011;8243;49.048;8.396;2023-09-19T10:07:01;2.73;;;1.17;;
16270;SDS011;8243;49.048;8.396;2023-09-19T10:09:30;1.97;;;1.47;;
16270;SDS011;8243;49.048;8.396;2023-09-19T10:12:09;2.60;;;1.40;;
16270;SDS011;8243;49.048;8.396;2023-09-19T10:14:39;2.37;;;1.40;;
16270;SDS011;8243;49.048;8.396;2023-09-19T10:17:09;3.77;;;1.67;;
16270;SDS011;8243;49.048;8.396;2023-09-19T10:19:45;4.00;;;1.70;;
16270;SDS011;8243;49.048;8.396;2023-09-19T10:22:23;3.23;;;1.70;;
16270;SDS011;8243;49.048;8.396;2023-09-19T10:24:53;3.77;;;1.97;;
16270;SDS011;8243;49.048;8.396;2023-09-19T10:27:19;5.50;;;1.53;;
16270;SDS011;8243;49.048;8.396;2023-09-19T10:29:45;4.23;;;1.60;;
16270;SDS011;8243;49.048;8.396;2023-09-19T10:32:16;3.00;;;1.50;;
16270;SDS011;8243;49.048;8.396;2023-09-19T10:34:46;3.13;;;1.80;;
16270;SDS011;8243;49.048;8.396;2023-09-19T10:37:13;3.53;;;1.70;;
16270;SDS011;8243;49.048;8.396;2023-09-19T10:39:40;2.83;;;1.40;;
16270;SDS011;8243;49.048;8.396;2023-09-19T10:42:07;2.83;;;1.30;;
16270;SDS011;8243;49.048;8.396;2023-09-19T10:44:42;2.73;;;1.50;;
16270;SDS011;8243;49.048;8.396;2023-09-19T10:47:10;4.40;;;1.57;;
16270;SDS011;8243;49.048;8.396;2023-09-19T10:49:42;2.33;;;1.60;;
16270;SDS011;8243;49.048;8.396;2023-09-19T10:52:12;2.30;;;1.40;;
16270;SDS011;8243;49.048;8.396;2023-09-19T10:54:45;2.33;;;1.53;;
16270;SDS011;8243;49.048;8.396;2023-09-19T10:57:23;2.00;;;1.40;;
16270;SDS011;8243;49.048;8.396;2023-09-19T11:00:08;3.43;;;1.60;;
16270;SDS011;8243;49.048;8.396;2023-09-19T11:06:00;2.83;;;1.60;;
16270;SDS011;8243;49.048;8.396;2023-09-19T11:08:52;3.97;;;1.50;;
16270;SDS011;8243;49.048;8.396;2023-09-19T11:30:41;3.23;;;1.70;;
16270;SDS011;8243;49.048;8.396;2023-09-19T11:33:23;2.90;;;1.53;;
16270;SDS011;8243;49.048;8.396;2023-09-19T11:43:51;2.63;;;1.80;;
16270;SDS011;8243;49.048;8.396;2023-09-19T11:46:33;2.67;;;1.67;;
16270;SDS011;8243;49.048;8.396;2023-09-19T11:49:05;2.80;;;1.43;;
16270;SDS011;8243;49.048;8.396;2023-09-19T11:51:40;3.73;;;1.60;;
16270;SDS011;8243;49.048;8.396;2023-09-19T11:54:10;3.43;;;1.50;;
16270;SDS011;8243;49.048;8.396;2023-09-19T11:56:53;2.93;;;1.50;;
16270;SDS011;8243;49.048;8.396;2023-09-19T11:59:23;2.87;;;1.30;;
16270;SDS011;8243;49.048;8.396;2023-09-19T12:01:53;4.13;;;1.80;;
16270;SDS011;8243;49.048;8.396;2023-09-19T12:09:37;2.47;;;1.50;;
16270;SDS011;8243;49.048;8.396;2023-09-19T12:12:10;2.97;;;1.57;;
16270;SDS011;8243;49.048;8.396;2023-09-19T12:14:47;3.27;;;1.47;;
16270;SDS011;8243;49.048;8.396;2023-09-19T12:17:13;1.70;;;1.20;;
16270;SDS011;8243;49.048;8.396;2023-09-19T12:19:49;3.60;;;1.60;;
16270;SDS011;8243;49.048;8.396;2023-09-19T12:22:16;2.80;;;1.60;;
16270;SDS011;8243;49.048;8.396;2023-09-19T12:24:44;4.83;;;1.30;;
16270;SDS011;8243;49.048;8.396;2023-09-19T12:27:10;1.63;;;1.30;;
16270;SDS011;8243;49.048;8.396;2023-09-19T12:29:43;2.47;;;1.40;;
16270;SDS011;8243;49.048;8.396;2023-09-19T12:32:10;1.87;;;1.40;;
16270;SDS011;8243;49.048;8.396;2023-09-19T12:34:38;4.37;;;1.53;;
16270;SDS011;8243;49.048;8.396;2023-09-19T12:37:08;1.87;;;1.60;;
16270;SDS011;8243;49.048;8.396;2023-09-19T12:39:46;2.30;;;1.60;;
16270;SDS011;8243;49.048;8.396;2023-09-19T12:42:14;2.77;;;1.43;;
16270;SDS011;8243;49.048;8.396;2023-09-19T12:44:42;2.13;;;1.40;;
16270;SDS011;8243;49.048;8.396;2023-09-19T12:47:16;1.67;;;1.40;;
16270;SDS011;8243;49.048;8.396;2023-09-19T12:52:38;3.73;;;1.50;;
16270;SDS011;8243;49.048;8.396;2023-09-19T12:55:05;2.10;;;1.50;;
16270;SDS011;8243;49.048;8.396;2023-09-19T12:57:33;2.00;;;1.40;;
16270;SDS011;8243;49.048;8.396;2023-09-19T13:00:00;3.63;;;1.70;;
16270;SDS011;8243;49.048;8.396;2023-09-19T13:02:27;1.77;;;1.30;;
16270;SDS011;8243;49.048;8.396;2023-09-19T13:04:53;2.67;;;1.60;;
16270;SDS011;8243;49.048;8.396;2023-09-19T13:07:40;2.20;;;1.40;;
16270;SDS011;8243;49.048;8.396;2023-09-19T13:10:10;1.97;;;1.30;;
16270;SDS011;8243;49.048;8.396;2023-09-19T13:12:36;5.87;;;1.43;;
16270;SDS011;8243;49.048;8.396;2023-09-19T13:15:07;1.63;;;1.30;;
16270;SDS011;8243;49.048;8.396;2023-09-19T13:17:45;4.33;;;1.50;;
16270;SDS011;8243;49.048;8.396;2023-09-19T13:20:22;3.53;;;1.70;;
16270;SDS011;8243;49.048;8.396;2023-09-19T13:22:52;1.53;;;1.20;;
16270;SDS011;8243;49.048;8.396;2023-09-19T13:25:19;2.77;;;1.37;;
16270;SDS011;8243;49.048;8.396;2023-09-19T13:27:47;1.70;;;1.40;;
16270;SDS011;8243;49.048;8.396;2023-09-19T13:30:19;1.50;;;1.20;;
16270;SDS011;8243;49.048;8.396;2023-09-19T13:32:45;1.93;;;1.43;;
16270;SDS011;8243;49.048;8.396;2023-09-19T13:35:14;1.90;;;1.30;;
16270;SDS011;8243;49.048;8.396;2023-09-19T13:37:40;1.77;;;1.20;;
16270;SDS011;8243;49.048;8.396;2023-09-19T13:40:11;2.13;;;1.50;;
16270;SDS011;8243;49.048;8.396;2023-09-19T13:42:38;4.03;;;1.67;;
16270;SDS011;8243;49.048;8.396;2023-09-19T13:45:07;3.03;;;1.50;;
16270;SDS011;8243;49.048;8.396;2023-09-19T13:47:42;3.37;;;1.40;;
16270;SDS011;8243;49.048;8.396;2023-09-19T13:50:08;2.33;;;1.63;;
16270;SDS011;8243;49.048;8.396;2023-09-19T13:52:34;2.93;;;1.70;;
16270;SDS011;8243;49.048;8.396;2023-09-19T13:54:59;5.23;;;1.50;;
16270;SDS011;8243;49.048;8.396;2023-09-19T13:57:25;3.03;;;1.40;;
16270;SDS011;8243;49.048;8.396;2023-09-19T13:59:52;3.27;;;1.53;;
16270;SDS011;8243;49.048;8.396;2023-09-19T14:02:21;3.10;;;1.60;;
16270;SDS011;8243;49.048;8.396;2023-09-19T14:04:50;3.53;;;1.43;;
16270;SDS011;8243;49.048;8.396;2023-09-19T14:07:17;2.50;;;1.30;;
16270;SDS011;8243;49.048;8.396;2023-09-19T14:09:44;1.97;;;1.47;;
16270;SDS011;8243;49.048;8.396;2023-09-19T14:12:10;3.23;;;1.60;;
16270;SDS011;8243;49.048;8.396;2023-09-19T14:14:36;1.93;;;1.30;;
16270;SDS011;8243;49.048;8.396;2023-09-19T14:17:03;5.63;;;1.60;;
16270;SDS011;8243;49.048;8.396;2023-09-19T14:19:29;2.00;;;1.43;;
16270;SDS011;8243;49.048;8.396;2023-09-19T14:21:55;2.43;;;1.30;;
16270;SDS011;8243;49.048;8.396;2023-09-19T14:24:21;3.10;;;1.60;;
16270;SDS011;8243;49.048;8.396;2023-09-19T14:26:48;2.57;;;1.43;;
16270;SDS011;8243;49.048;8.396;2023-09-19T14:29:15;2.20;;;1.40;;
16270;SDS011;8243;49.048;8.396;2023-09-19T14:31:41;2.63;;;1.30;;
16270;SDS011;8243;49.048;8.396;2023-09-19T14:34:07;1.40;;;1.20;;
16270;SDS011;8243;49.048;8.396;2023-09-19T14:36:36;2.43;;;1.30;;
16270;SDS011;8243;49.048;8.396;2023-09-19T14:39:04;1.73;;;1.10;;
16270;SDS011;8243;49.048;8.396;2023-09-19T14:41:30;1.40;;;1.10;;
16270;SDS011;8243;49.048;8.396;2023-09-19T14:43:57;1.00;;;1.00;;
16270;SDS011;8243;49.048;8.396;2023-09-19T14:46:23;1.73;;;1.40;;
16270;SDS011;8243;49.048;8.396;2023-09-19T14:48:52;2.83;;;1.50;;
16270;SDS011;8243;49.048;8.396;2023-09-19T14:51:17;1.33;;;1.23;;
16270;SDS011;8243;49.048;8.396;2023-09-19T14:53:47;1.97;;;1.30;;
16270;SDS011;8243;49.048;8.396;2023-09-19T14:56:12;2.17;;;1.30;;
16270;SDS011;8243;49.048;8.396;2023-09-19T14:58:43;2.20;;;1.20;;
16270;SDS011;8243;49.048;8.396;2023-09-19T15:01:09;2.63;;;1.07;;
16270;SDS011;8243;49.048;8.396;2023-09-19T15:03:36;2.23;;;1.30;;
16270;SDS011;8243;49.048;8.396;2023-09-19T15:06:05;1.27;;;1.17;;
16270;SDS011;8243;49.048;8.396;2023-09-19T15:08:34;2.83;;;1.40;;
16270;SDS011;8243;49.048;8.396;2023-09-19T15:11:09;1.87;;;1.20;;
16270;SDS011;8243;49.048;8.396;2023-09-19T15:13:37;1.83;;;1.13;;
16270;SDS011;8243;49.048;8.396;2023-09-19T15:16:03;2.73;;;1.13;;
16270;SDS011;8243;49.048;8.396;2023-09-19T15:18:37;1.57;;;1.27;;
16270;SDS011;8243;49.048;8.396;2023-09-19T15:21:06;1.83;;;1.20;;
16270;SDS011;8243;49.048;8.396;2023-09-19T15:23:34;2.47;;;1.40;;
16270;SDS011;8243;49.048;8.396;2023-09-19T15:26:01;1.87;;;1.30;;
16270;SDS011;8243;49.048;8.396;2023-09-19T15:28:31;1.43;;;1.30;;
16270;SDS011;8243;49.048;8.396;2023-09-19T15:33:27;1.73;;;1.20;;
16270;SDS011;8243;49.048;8.396;2023-09-19T15:36:00;2.23;;;1.30;;
16270;SDS011;8243;49.048;8.396;2023-09-19T15:41:25;2.63;;;1.30;;
16270;SDS011;8243;49.048;8.396;2023-09-19T15:43:52;1.83;;;1.20;;
16270;SDS011;8243;49.048;8.396;2023-09-19T15:46:19;1.97;;;1.20;;
16270;SDS011;8243;49.048;8.396;2023-09-19T15:48:46;1.17;;;1.07;;
16270;SDS011;8243;49.048;8.396;2023-09-19T15:51:12;1.50;;;1.30;;
16270;SDS011;8243;49.048;8.396;2023-09-19T15:53:42;1.50;;;1.40;;
16270;SDS011;8243;49.048;8.396;2023-09-19T15:56:14;1.90;;;1.20;;
16270;SDS011;8243;49.048;8.396;2023-09-19T15:58:43;3.07;;;1.43;;
16270;SDS011;8243;49.048;8.396;2023-09-19T16:01:09;2.17;;;1.30;;
16270;SDS011;8243;49.048;8.396;2023-09-19T16:03:38;1.20;;;1.10;;
16270;SDS011;8243;49.048;8.396;2023-09-19T16:06:11;2.53;;;1.33;;
16270;SDS011;8243;49.048;8.396;2023-09-19T16:08:41;1.73;;;1.50;;
16270;SDS011;8243;49.048;8.396;2023-09-19T16:11:08;1.33;;;1.23;;
16270;SDS011;8243;49.048;8.396;2023-09-19T16:13:35;1.23;;;1.13;;
16270;SDS011;8243;49.048;8.396;2023-09-19T16:16:02;2.53;;;1.70;;
16270;SDS011;8243;49.048;8.396;2023-09-19T16:18:28;1.40;;;1.20;;